createdAt,value
2018-09-19T00:00:21.675Z,0
2018-09-19T00:01:31.579Z,0
2018-09-19T00:02:41.458Z,0
2018-09-19T00:03:51.566Z,0
2018-09-19T00:05:01.431Z,0
2018-09-19T00:06:11.012Z,0
2018-09-19T00:07:20.321Z,0
2018-09-19T00:08:30.438Z,0
2018-09-19T00:09:40.291Z,0
2018-09-19T00:10:50.400Z,0
2018-09-19T00:11:59.974Z,0
2018-09-19T00:13:10.104Z,0
2018-09-19T00:14:20.221Z,0
2018-09-19T00:15:30.348Z,0
2018-09-19T00:16:40.479Z,0
2018-09-19T00:17:50.603Z,0
2018-09-19T00:19:00.445Z,0
2018-09-19T00:20:10.835Z,0
2018-09-19T00:21:20.707Z,0
2018-09-19T00:22:30.928Z,0
2018-09-19T00:23:41.082Z,0
2018-09-19T00:24:50.662Z,0
2018-09-19T00:26:00.237Z,0
2018-09-19T00:27:10.354Z,0
2018-09-19T00:28:20.203Z,0
2018-09-19T00:29:30.282Z,0
2018-09-19T00:30:40.134Z,0
2018-09-19T00:31:49.986Z,0
2018-09-19T00:33:00.099Z,0
2018-09-19T00:34:09.951Z,0
2018-09-19T00:35:19.822Z,0
2018-09-19T00:36:29.693Z,0
2018-09-19T00:37:39.535Z,0
2018-09-19T00:38:49.630Z,0
2018-09-19T00:39:59.497Z,0
2018-09-19T00:41:09.616Z,0
2018-09-19T00:42:19.526Z,0
2018-09-19T00:43:29.333Z,0
2018-09-19T00:44:39.198Z,0
2018-09-19T00:45:49.091Z,0
2018-09-19T00:46:59.007Z,0
2018-09-19T00:48:08.867Z,0
2018-09-19T00:49:18.710Z,0
2018-09-19T00:50:28.349Z,0
2018-09-19T00:51:38.508Z,0
2018-09-19T00:52:48.686Z,0
2018-09-19T00:53:58.535Z,0
2018-09-19T00:55:08.404Z,0
2018-09-19T00:56:18.251Z,0
2018-09-19T00:57:28.380Z,0
2018-09-19T00:58:37.985Z,0
2018-09-19T00:59:48.108Z,0
2018-09-19T01:00:58.228Z,0
2018-09-19T01:02:08.400Z,0
2018-09-19T01:03:18.518Z,0
2018-09-19T01:04:28.373Z,0
2018-09-19T01:05:38.634Z,0
2018-09-19T01:06:48.496Z,0
2018-09-19T01:07:58.371Z,0
2018-09-19T01:09:08.215Z,0
2018-09-19T01:10:18.342Z,0
2018-09-19T01:11:28.184Z,0
2018-09-19T01:12:37.767Z,0
2018-09-19T01:13:47.636Z,0
2018-09-19T01:14:57.488Z,0
2018-09-19T01:16:07.340Z,0
2018-09-19T01:17:17.219Z,0
2018-09-19T01:18:27.346Z,0
2018-09-19T01:19:37.268Z,0
2018-09-19T01:20:46.848Z,0
2018-09-19T01:21:56.973Z,0
2018-09-19T01:23:07.093Z,0
2018-09-19T01:24:17.220Z,0
2018-09-19T01:25:26.521Z,0
2018-09-19T01:26:36.638Z,0
2018-09-19T01:27:46.766Z,0
2018-09-19T01:28:56.372Z,0
2018-09-19T01:30:06.516Z,0
2018-09-19T01:31:16.180Z,0
2018-09-19T01:32:25.754Z,0
2018-09-19T01:33:35.062Z,0
2018-09-19T01:34:45.466Z,0
2018-09-19T01:35:55.045Z,0
2018-09-19T01:37:04.883Z,0
2018-09-19T01:38:14.727Z,0
2018-09-19T01:39:24.576Z,0
2018-09-19T01:40:34.720Z,0
2018-09-19T01:41:44.638Z,0
2018-09-19T01:42:54.761Z,0
2018-09-19T01:44:04.606Z,0
2018-09-19T01:45:13.926Z,0
2018-09-19T01:46:23.768Z,0
2018-09-19T01:47:33.346Z,0
2018-09-19T01:48:42.921Z,0
2018-09-19T01:49:52.503Z,0
2018-09-19T01:51:02.945Z,0
2018-09-19T01:52:12.559Z,0
2018-09-19T01:53:22.434Z,0
2018-09-19T01:54:32.563Z,0
2018-09-19T01:55:41.865Z,0
2018-09-19T01:56:51.473Z,0
2018-09-19T01:58:01.335Z,0
2018-09-19T01:59:11.187Z,0
2018-09-19T02:00:21.091Z,0
2018-09-19T02:01:30.664Z,0
2018-09-19T02:02:40.531Z,0
2018-09-19T02:03:50.704Z,0
2018-09-19T02:05:00.549Z,0
2018-09-19T02:06:10.393Z,0
2018-09-19T02:07:19.964Z,0
2018-09-19T02:08:29.867Z,0
2018-09-19T02:09:39.728Z,0
2018-09-19T02:10:49.659Z,0
2018-09-19T02:11:59.790Z,0
2018-09-19T02:13:09.648Z,0
2018-09-19T02:14:19.487Z,0
2018-09-19T02:15:29.657Z,0
2018-09-19T02:16:39.794Z,0
2018-09-19T02:17:49.689Z,0
2018-09-19T02:18:59.265Z,0
2018-09-19T02:20:08.846Z,0
2018-09-19T02:21:18.704Z,0
2018-09-19T02:22:28.541Z,0
2018-09-19T02:23:38.906Z,0
2018-09-19T02:24:49.063Z,0
2018-09-19T02:25:58.910Z,0
2018-09-19T02:27:09.036Z,0
2018-09-19T02:28:19.173Z,0
2018-09-19T02:29:29.342Z,0
2018-09-19T02:30:39.494Z,0
2018-09-19T02:31:49.388Z,0
2018-09-19T02:32:59.279Z,0
2018-09-19T02:34:09.407Z,0
2018-09-19T02:35:19.710Z,0
2018-09-19T02:36:29.816Z,0
2018-09-19T02:37:39.673Z,0
2018-09-19T02:38:49.802Z,0
2018-09-19T02:39:59.668Z,0
2018-09-19T02:41:09.260Z,0
2018-09-19T02:42:19.399Z,0
2018-09-19T02:43:29.269Z,0
2018-09-19T02:44:39.405Z,0
2018-09-19T02:45:49.261Z,0
2018-09-19T02:46:59.121Z,0
2018-09-19T02:48:08.985Z,0
2018-09-19T02:49:19.146Z,0
2018-09-19T02:50:29.054Z,0
2018-09-19T02:51:39.187Z,0
2018-09-19T02:52:49.055Z,0
2018-09-19T02:53:58.951Z,0
2018-09-19T02:55:09.095Z,0
2018-09-19T02:56:18.706Z,0
2018-09-19T02:57:28.561Z,0
2018-09-19T02:58:38.419Z,0
2018-09-19T02:59:48.606Z,0
2018-09-19T03:00:58.453Z,0
2018-09-19T03:02:08.107Z,0
2018-09-19T03:03:17.410Z,0
2018-09-19T03:04:27.318Z,0
2018-09-19T03:05:37.442Z,0
2018-09-19T03:06:47.569Z,0
2018-09-19T03:07:57.469Z,0
2018-09-19T03:09:07.320Z,0
2018-09-19T03:10:17.469Z,0
2018-09-19T03:11:27.327Z,0
2018-09-19T03:12:37.188Z,0
2018-09-19T03:13:47.050Z,0
2018-09-19T03:14:56.906Z,0
2018-09-19T03:16:06.486Z,0
2018-09-19T03:17:17.061Z,0
2018-09-19T03:18:27.044Z,0
2018-09-19T03:19:36.896Z,0
2018-09-19T03:20:47.012Z,0
2018-09-19T03:21:56.883Z,0
2018-09-19T03:23:06.457Z,0
2018-09-19T03:24:16.639Z,0
2018-09-19T03:25:26.774Z,0
2018-09-19T03:26:36.359Z,0
2018-09-19T03:27:46.231Z,0
2018-09-19T03:28:56.088Z,0
2018-09-19T03:30:05.930Z,0
2018-09-19T03:31:15.836Z,0
2018-09-19T03:32:25.438Z,0
2018-09-19T03:33:35.560Z,0
2018-09-19T03:34:45.404Z,0
2018-09-19T03:35:54.984Z,0
2018-09-19T03:37:05.154Z,0
2018-09-19T03:38:15.297Z,0
2018-09-19T03:39:25.440Z,0
2018-09-19T03:40:35.369Z,0
2018-09-19T03:41:45.231Z,0
2018-09-19T03:42:54.841Z,0
2018-09-19T03:44:04.418Z,0
2018-09-19T03:45:14.278Z,0
2018-09-19T03:46:23.871Z,0
2018-09-19T03:47:34.002Z,0
2018-09-19T03:48:44.117Z,0
2018-09-19T03:49:54.274Z,0
2018-09-19T03:51:03.844Z,0
2018-09-19T03:52:13.696Z,0
2018-09-19T03:53:23.268Z,0
2018-09-19T03:54:32.840Z,0
2018-09-19T03:55:42.326Z,0
2018-09-19T03:56:52.497Z,0
2018-09-19T03:58:02.745Z,0
2018-09-19T03:59:12.643Z,0
2018-09-19T04:00:22.506Z,0
2018-09-19T04:01:32.361Z,0
2018-09-19T04:02:42.543Z,0
2018-09-19T04:03:52.415Z,0
2018-09-19T04:05:02.027Z,0
2018-09-19T04:06:11.872Z,0
2018-09-19T04:07:21.472Z,0
2018-09-19T04:08:31.346Z,0
2018-09-19T04:09:41.196Z,0
2018-09-19T04:10:51.035Z,0
2018-09-19T04:12:00.891Z,0
2018-09-19T04:13:10.789Z,0
2018-09-19T04:14:20.688Z,0
2018-09-19T04:15:30.821Z,0
2018-09-19T04:16:40.867Z,0
2018-09-19T04:17:51.026Z,0
2018-09-19T04:19:01.212Z,0
2018-09-19T04:20:11.091Z,0
2018-09-19T04:21:20.972Z,0
2018-09-19T04:22:30.826Z,0
2018-09-19T04:23:40.681Z,0
2018-09-19T04:24:50.804Z,0
2018-09-19T04:26:00.644Z,0
2018-09-19T04:27:10.759Z,0
2018-09-19T04:28:20.944Z,0
2018-09-19T04:29:31.018Z,0
2018-09-19T04:30:41.103Z,0
2018-09-19T04:31:51.226Z,0
2018-09-19T04:33:01.367Z,0
2018-09-19T04:34:10.940Z,0
2018-09-19T04:35:20.800Z,0
2018-09-19T04:36:30.930Z,0
2018-09-19T04:37:40.829Z,0
2018-09-19T04:38:50.972Z,0
2018-09-19T04:40:00.282Z,0
2018-09-19T04:41:10.133Z,0
2018-09-19T04:42:19.689Z,0
2018-09-19T04:43:29.824Z,0
2018-09-19T04:44:39.435Z,0
2018-09-19T04:45:49.294Z,0
2018-09-19T04:46:59.152Z,0
2018-09-19T04:48:09.279Z,0
2018-09-19T04:49:19.410Z,0
2018-09-19T04:50:29.553Z,0
2018-09-19T04:51:39.728Z,0
2018-09-19T04:52:49.728Z,0
2018-09-19T04:53:59.329Z,0
2018-09-19T04:55:09.185Z,0
2018-09-19T04:56:19.042Z,0
2018-09-19T04:57:28.952Z,0
2018-09-19T04:58:39.091Z,0
2018-09-19T04:59:48.942Z,5
2018-09-19T05:00:58.520Z,5
2018-09-19T05:02:08.103Z,5
2018-09-19T05:03:18.263Z,5
2018-09-19T05:04:27.291Z,5
2018-09-19T05:05:36.987Z,5
2018-09-19T05:06:46.831Z,10
2018-09-19T05:07:56.696Z,10
2018-09-19T05:09:06.568Z,10
2018-09-19T05:10:16.725Z,10
2018-09-19T05:11:27.191Z,15
2018-09-19T05:12:37.110Z,15
2018-09-19T05:13:46.432Z,15
2018-09-19T05:14:56.288Z,20
2018-09-19T05:16:06.137Z,20
2018-09-19T05:17:15.479Z,20
2018-09-19T05:18:24.783Z,25
2018-09-19T05:19:34.964Z,25
2018-09-19T05:20:44.545Z,25
2018-09-19T05:21:54.394Z,30
2018-09-19T05:23:03.971Z,30
2018-09-19T05:24:13.548Z,30
2018-09-19T05:25:23.394Z,30
2018-09-19T05:26:33.309Z,35
2018-09-19T05:27:43.430Z,35
2018-09-19T05:28:53.540Z,35
2018-09-19T05:30:03.134Z,35
2018-09-19T05:31:12.983Z,40
2018-09-19T05:32:23.100Z,40
2018-09-19T05:33:32.948Z,40
2018-09-19T05:34:42.794Z,40
2018-09-19T05:35:52.370Z,45
2018-09-19T05:37:01.951Z,45
2018-09-19T05:38:11.809Z,45
2018-09-19T05:39:21.929Z,50
2018-09-19T05:40:31.770Z,50
2018-09-19T05:41:41.093Z,50
2018-09-19T05:42:50.933Z,50
2018-09-19T05:44:01.047Z,50
2018-09-19T05:45:10.897Z,55
2018-09-19T05:46:21.293Z,55
2018-09-19T05:47:31.702Z,55
2018-09-19T05:48:41.544Z,60
2018-09-19T05:49:51.707Z,60
2018-09-19T05:51:01.554Z,60
2018-09-19T05:52:11.131Z,65
2018-09-19T05:53:20.975Z,65
2018-09-19T05:54:31.413Z,65
2018-09-19T05:55:41.247Z,65
2018-09-19T05:56:51.385Z,65
2018-09-19T05:58:00.966Z,70
2018-09-19T05:59:10.601Z,70
2018-09-19T06:00:20.536Z,70
2018-09-19T06:01:30.668Z,70
2018-09-19T06:02:40.577Z,70
2018-09-19T06:03:50.716Z,70
2018-09-19T06:05:01.246Z,70
2018-09-19T06:06:11.455Z,75
2018-09-19T06:07:21.610Z,75
2018-09-19T06:08:31.448Z,75
2018-09-19T06:09:41.296Z,80
2018-09-19T06:10:51.426Z,80
2018-09-19T06:12:01.273Z,80
2018-09-19T06:13:11.590Z,75
2018-09-19T06:14:21.443Z,80
2018-09-19T06:15:31.308Z,80
2018-09-19T06:16:41.918Z,80
2018-09-19T06:17:52.052Z,85
2018-09-19T06:19:01.898Z,85
2018-09-19T06:20:11.747Z,90
2018-09-19T06:21:21.592Z,90
2018-09-19T06:22:31.763Z,95
2018-09-19T06:23:41.621Z,95
2018-09-19T06:24:51.464Z,100
2018-09-19T06:26:00.782Z,100
2018-09-19T06:27:11.064Z,100
2018-09-19T06:28:20.905Z,105
2018-09-19T06:29:30.752Z,110
2018-09-19T06:30:40.884Z,115
2018-09-19T06:31:51.003Z,115
2018-09-19T06:33:01.623Z,115
2018-09-19T06:34:11.838Z,115
2018-09-19T06:35:21.685Z,110
2018-09-19T06:36:31.812Z,115
2018-09-19T06:37:41.707Z,115
2018-09-19T06:38:51.565Z,120
2018-09-19T06:40:01.988Z,120
2018-09-19T06:41:12.085Z,120
2018-09-19T06:42:21.932Z,120
2018-09-19T06:43:31.238Z,120
2018-09-19T06:44:41.363Z,120
2018-09-19T06:45:51.565Z,120
2018-09-19T06:47:01.529Z,125
2018-09-19T06:48:11.415Z,125
2018-09-19T06:49:21.305Z,125
2018-09-19T06:50:31.156Z,125
2018-09-19T06:51:40.730Z,125
2018-09-19T06:52:50.596Z,125
2018-09-19T06:54:00.716Z,125
2018-09-19T06:55:10.888Z,130
2018-09-19T06:56:21.005Z,130
2018-09-19T06:57:30.326Z,130
2018-09-19T06:58:40.177Z,130
2018-09-19T06:59:50.512Z,130
2018-09-19T07:01:00.682Z,130
2018-09-19T07:02:10.257Z,135
2018-09-19T07:03:20.162Z,135
2018-09-19T07:04:30.046Z,135
2018-09-19T07:05:39.918Z,135
2018-09-19T07:06:49.805Z,135
2018-09-19T07:07:59.659Z,135
2018-09-19T07:09:09.240Z,135
2018-09-19T07:10:19.091Z,140
2018-09-19T07:11:29.214Z,145
2018-09-19T07:12:39.327Z,140
2018-09-19T07:13:48.905Z,140
2018-09-19T07:14:59.573Z,140
2018-09-19T07:16:09.413Z,140
2018-09-19T07:17:19.271Z,140
2018-09-19T07:18:29.120Z,145
2018-09-19T07:19:38.721Z,145
2018-09-19T07:20:48.837Z,145
2018-09-19T07:21:58.412Z,145
2018-09-19T07:23:08.028Z,150
2018-09-19T07:24:17.933Z,150
2018-09-19T07:25:27.720Z,150
2018-09-19T07:26:37.086Z,155
2018-09-19T07:27:46.955Z,155
2018-09-19T07:28:56.820Z,155
2018-09-19T07:30:06.632Z,160
2018-09-19T07:31:16.875Z,160
2018-09-19T07:32:26.221Z,160
2018-09-19T07:33:35.802Z,160
2018-09-19T07:34:46.029Z,160
2018-09-19T07:35:56.186Z,160
2018-09-19T07:37:06.028Z,160
2018-09-19T07:38:15.872Z,160
2018-09-19T07:39:25.527Z,160
2018-09-19T07:40:35.315Z,160
2018-09-19T07:41:45.181Z,155
2018-09-19T07:42:55.027Z,150
2018-09-19T07:44:04.877Z,150
2018-09-19T07:45:14.494Z,150
2018-09-19T07:46:24.458Z,150
2018-09-19T07:47:34.090Z,145
2018-09-19T07:48:43.962Z,145
2018-09-19T07:49:53.550Z,145
2018-09-19T07:51:03.705Z,145
2018-09-19T07:52:13.301Z,140
2018-09-19T07:53:22.877Z,140
2018-09-19T07:54:33.222Z,140
2018-09-19T07:55:43.125Z,145
2018-09-19T07:56:53.148Z,145
2018-09-19T07:58:03.298Z,145
2018-09-19T07:59:13.420Z,150
2018-09-19T08:00:23.342Z,150
2018-09-19T08:01:33.171Z,150
2018-09-19T08:02:43.301Z,150
2018-09-19T08:03:53.160Z,150
2018-09-19T08:05:02.737Z,155
2018-09-19T08:06:12.904Z,155
2018-09-19T08:07:22.479Z,155
2018-09-19T08:08:32.336Z,155
2018-09-19T08:09:41.913Z,160
2018-09-19T08:10:52.042Z,160
2018-09-19T08:12:01.917Z,160
2018-09-19T08:13:11.508Z,160
2018-09-19T08:14:21.669Z,160
2018-09-19T08:15:31.531Z,160
2018-09-19T08:16:41.428Z,160
2018-09-19T08:17:51.596Z,160
2018-09-19T08:19:01.760Z,160
2018-09-19T08:20:11.350Z,160
2018-09-19T08:21:21.463Z,165
2018-09-19T08:22:31.183Z,165
2018-09-19T08:23:41.341Z,165
2018-09-19T08:24:51.518Z,165
2018-09-19T08:26:01.369Z,165
2018-09-19T08:27:11.237Z,165
2018-09-19T08:28:21.091Z,165
2018-09-19T08:29:30.949Z,165
2018-09-19T08:30:41.069Z,165
2018-09-19T08:31:50.933Z,165
2018-09-19T08:33:01.057Z,165
2018-09-19T08:34:11.181Z,170
2018-09-19T08:35:21.300Z,170
2018-09-19T08:36:31.209Z,170
2018-09-19T08:37:40.790Z,170
2018-09-19T08:38:50.911Z,170
2018-09-19T08:40:00.760Z,165
2018-09-19T08:41:10.916Z,165
2018-09-19T08:42:20.784Z,165
2018-09-19T08:43:30.647Z,165
2018-09-19T08:44:40.235Z,170
2018-09-19T08:45:50.091Z,170
2018-09-19T08:46:59.415Z,170
2018-09-19T08:48:09.017Z,170
2018-09-19T08:49:18.602Z,170
2018-09-19T08:50:28.853Z,170
2018-09-19T08:51:38.725Z,170
2018-09-19T08:52:48.321Z,170
2018-09-19T08:53:57.901Z,170
2018-09-19T08:55:07.744Z,170
2018-09-19T08:56:17.906Z,175
2018-09-19T08:57:27.783Z,175
2018-09-19T08:58:37.963Z,175
2018-09-19T08:59:47.871Z,175
2018-09-19T09:00:57.717Z,175
2018-09-19T09:02:07.847Z,175
2018-09-19T09:03:18.035Z,175
2018-09-19T09:04:28.160Z,180
2018-09-19T09:05:38.509Z,180
2018-09-19T09:06:48.630Z,185
2018-09-19T09:07:58.836Z,190
2018-09-19T09:09:08.439Z,200
2018-09-19T09:10:18.562Z,210
2018-09-19T09:11:27.921Z,215
2018-09-19T09:12:38.055Z,215
2018-09-19T09:13:48.230Z,215
2018-09-19T09:14:58.352Z,215
2018-09-19T09:16:07.935Z,210
2018-09-19T09:17:18.129Z,210
2018-09-19T09:18:27.983Z,225
2018-09-19T09:19:37.286Z,265
2018-09-19T09:20:46.946Z,255
2018-09-19T09:21:56.251Z,235
2018-09-19T09:23:06.105Z,190
2018-09-19T09:24:15.955Z,180
2018-09-19T09:25:25.819Z,180
2018-09-19T09:26:35.711Z,180
2018-09-19T09:27:45.891Z,190
2018-09-19T09:28:55.760Z,200
2018-09-19T09:30:05.345Z,195
2018-09-19T09:31:15.913Z,190
2018-09-19T09:32:25.200Z,195
2018-09-19T09:33:35.060Z,195
2018-09-19T09:34:44.372Z,185
2018-09-19T09:35:54.225Z,190
2018-09-19T09:37:03.560Z,190
2018-09-19T09:38:13.148Z,200
2018-09-19T09:39:23.102Z,200
2018-09-19T09:40:33.684Z,200
2018-09-19T09:41:43.277Z,200
2018-09-19T09:42:53.223Z,205
2018-09-19T09:44:03.363Z,205
2018-09-19T09:45:12.951Z,205
2018-09-19T09:46:22.814Z,205
2018-09-19T09:47:32.711Z,205
2018-09-19T09:48:42.292Z,205
2018-09-19T09:49:52.149Z,205
2018-09-19T09:51:01.998Z,210
2018-09-19T09:52:12.154Z,210
2018-09-19T09:53:22.815Z,210
2018-09-19T09:54:32.601Z,215
2018-09-19T09:55:42.745Z,215
2018-09-19T09:56:52.870Z,215
2018-09-19T09:58:03.007Z,215
2018-09-19T09:59:12.859Z,215
2018-09-19T10:00:22.976Z,215
2018-09-19T10:01:32.838Z,215
2018-09-19T10:02:42.411Z,220
2018-09-19T10:03:52.309Z,215
2018-09-19T10:05:02.427Z,220
2018-09-19T10:06:12.275Z,220
2018-09-19T10:07:22.409Z,220
2018-09-19T10:08:31.993Z,220
2018-09-19T10:09:41.290Z,225
2018-09-19T10:10:51.416Z,230
2018-09-19T10:12:01.537Z,235
2018-09-19T10:13:11.388Z,240
2018-09-19T10:14:20.963Z,220
2018-09-19T10:15:30.831Z,235
2018-09-19T10:16:40.718Z,240
2018-09-19T10:17:50.828Z,240
2018-09-19T10:19:00.962Z,240
2018-09-19T10:20:10.839Z,235
2018-09-19T10:21:20.696Z,235
2018-09-19T10:22:30.812Z,235
2018-09-19T10:23:40.931Z,235
2018-09-19T10:24:50.508Z,230
2018-09-19T10:26:00.355Z,235
2018-09-19T10:27:09.946Z,235
2018-09-19T10:28:19.791Z,235
2018-09-19T10:29:29.717Z,240
2018-09-19T10:30:39.316Z,240
2018-09-19T10:31:49.164Z,245
2018-09-19T10:32:58.475Z,250
2018-09-19T10:34:08.594Z,260
2018-09-19T10:35:18.337Z,260
2018-09-19T10:36:28.521Z,265
2018-09-19T10:37:38.109Z,270
2018-09-19T10:38:47.688Z,290
2018-09-19T10:39:57.803Z,310
2018-09-19T10:41:07.919Z,285
2018-09-19T10:42:17.823Z,265
2018-09-19T10:43:27.647Z,270
2018-09-19T10:44:37.556Z,265
2018-09-19T10:45:47.417Z,260
2018-09-19T10:46:57.534Z,255
2018-09-19T10:48:07.386Z,255
2018-09-19T10:49:16.998Z,255
2018-09-19T10:50:27.367Z,250
2018-09-19T10:51:37.495Z,250
2018-09-19T10:52:47.339Z,250
2018-09-19T10:53:57.456Z,250
2018-09-19T10:55:07.037Z,255
2018-09-19T10:56:17.168Z,255
2018-09-19T10:57:26.754Z,255
2018-09-19T10:58:36.338Z,260
2018-09-19T10:59:46.186Z,270
2018-09-19T11:00:56.058Z,265
2018-09-19T11:02:05.632Z,265
2018-09-19T11:03:15.755Z,270
2018-09-19T11:04:25.602Z,270
2018-09-19T11:05:35.453Z,285
2018-09-19T11:06:45.574Z,260
2018-09-19T11:07:55.421Z,280
2018-09-19T11:09:04.727Z,285
2018-09-19T11:10:14.912Z,290
2018-09-19T11:11:24.779Z,295
2018-09-19T11:12:34.917Z,295
2018-09-19T11:13:45.033Z,305
2018-09-19T11:14:54.881Z,315
2018-09-19T11:16:04.730Z,310
2018-09-19T11:17:14.847Z,325
2018-09-19T11:18:24.695Z,325
2018-09-19T11:19:34.277Z,310
2018-09-19T11:20:44.126Z,320
2018-09-19T11:21:54.002Z,325
2018-09-19T11:23:03.851Z,295
2018-09-19T11:24:13.459Z,315
2018-09-19T11:25:23.344Z,310
2018-09-19T11:26:33.334Z,340
2018-09-19T11:27:43.455Z,355
2018-09-19T11:28:53.310Z,360
2018-09-19T11:30:03.426Z,380
2018-09-19T11:31:13.269Z,395
2018-09-19T11:32:22.304Z,375
2018-09-19T11:33:32.788Z,365
2018-09-19T11:34:42.590Z,340
2018-09-19T11:35:52.709Z,335
2018-09-19T11:37:02.578Z,305
2018-09-19T11:38:12.630Z,335
2018-09-19T11:39:22.206Z,355
2018-09-19T11:40:31.517Z,360
2018-09-19T11:41:41.656Z,355
2018-09-19T11:42:51.769Z,355
2018-09-19T11:44:01.074Z,335
2018-09-19T11:45:10.930Z,335
2018-09-19T11:46:21.049Z,365
2018-09-19T11:47:30.894Z,400
2018-09-19T11:48:40.866Z,445
2018-09-19T11:49:50.782Z,600
2018-09-19T11:51:00.949Z,1245
2018-09-19T11:52:10.255Z,950
2018-09-19T11:53:20.122Z,850
2018-09-19T11:54:30.244Z,915
2018-09-19T11:55:40.104Z,820
2018-09-19T11:56:49.946Z,810
2018-09-19T11:57:59.649Z,740
2018-09-19T11:59:09.824Z,730
2018-09-19T12:00:19.940Z,840
2018-09-19T12:01:29.550Z,1005
2018-09-19T12:02:39.408Z,1245
2018-09-19T12:03:49.263Z,1110
2018-09-19T12:04:59.112Z,770
2018-09-19T12:06:08.955Z,645
2018-09-19T12:07:18.718Z,590
2018-09-19T12:08:27.881Z,825
2018-09-19T12:09:37.497Z,645
2018-09-19T12:10:47.099Z,645
2018-09-19T12:11:56.679Z,620
2018-09-19T12:13:06.799Z,545
2018-09-19T12:14:16.760Z,550
2018-09-19T12:15:25.801Z,400
2018-09-19T12:16:35.645Z,435
2018-09-19T12:17:45.769Z,450
2018-09-19T12:18:55.614Z,505
2018-09-19T12:20:05.741Z,460
2018-09-19T12:21:15.316Z,865
2018-09-19T12:22:25.166Z,700
2018-09-19T12:23:35.024Z,455
2018-09-19T12:24:44.601Z,445
2018-09-19T12:25:54.606Z,475
2018-09-19T12:27:04.186Z,765
2018-09-19T12:28:13.495Z,645
2018-09-19T12:29:22.812Z,655
2018-09-19T12:30:32.703Z,640
2018-09-19T12:31:42.282Z,495
2018-09-19T12:32:52.366Z,525
2018-09-19T12:34:02.250Z,730
2018-09-19T12:35:12.106Z,750
2018-09-19T12:36:21.957Z,530
2018-09-19T12:37:31.859Z,660
2018-09-19T12:38:41.438Z,700
2018-09-19T12:39:51.702Z,570
2018-09-19T12:41:01.824Z,545
2018-09-19T12:42:11.712Z,770
2018-09-19T12:43:21.336Z,575
2018-09-19T12:44:30.916Z,700
2018-09-19T12:45:40.768Z,530
2018-09-19T12:46:50.918Z,565
2018-09-19T12:48:00.234Z,560
2018-09-19T12:49:10.112Z,570
2018-09-19T12:50:20.017Z,585
2018-09-19T12:51:29.651Z,660
2018-09-19T12:52:38.958Z,690
2018-09-19T12:53:48.807Z,685
2018-09-19T12:54:58.970Z,655
2018-09-19T12:56:08.296Z,450
2018-09-19T12:57:18.420Z,535
2018-09-19T12:58:28.276Z,675
2018-09-19T12:59:38.134Z,525
2018-09-19T13:00:48.012Z,460
2018-09-19T13:01:57.594Z,430
2018-09-19T13:03:07.775Z,435
2018-09-19T13:04:17.620Z,490
2018-09-19T13:05:27.208Z,555
2018-09-19T13:06:37.056Z,670
2018-09-19T13:07:46.947Z,735
2018-09-19T13:08:56.936Z,680
2018-09-19T13:10:06.537Z,585
2018-09-19T13:11:16.150Z,540
2018-09-19T13:12:25.786Z,655
2018-09-19T13:13:35.640Z,630
2018-09-19T13:14:45.487Z,575
2018-09-19T13:15:55.337Z,595
2018-09-19T13:17:05.456Z,515
2018-09-19T13:18:15.327Z,535
2018-09-19T13:19:25.499Z,560
2018-09-19T13:20:35.619Z,595
2018-09-19T13:21:44.983Z,585
2018-09-19T13:22:54.850Z,555
2018-09-19T13:24:04.996Z,530
2018-09-19T13:25:14.306Z,490
2018-09-19T13:26:24.156Z,605
2018-09-19T13:27:34.036Z,690
2018-09-19T13:28:44.156Z,690
2018-09-19T13:29:54.058Z,590
2018-09-19T13:31:03.636Z,575
2018-09-19T13:32:13.488Z,505
2018-09-19T13:33:23.343Z,480
2018-09-19T13:34:32.689Z,635
2018-09-19T13:35:42.815Z,610
2018-09-19T13:36:52.593Z,610
2018-09-19T13:38:02.711Z,570
2018-09-19T13:39:12.017Z,475
2018-09-19T13:40:21.595Z,525
2018-09-19T13:41:31.719Z,575
2018-09-19T13:42:41.842Z,630
2018-09-19T13:43:51.962Z,700
2018-09-19T13:45:01.538Z,725
2018-09-19T13:46:11.682Z,800
2018-09-19T13:47:21.264Z,950
2018-09-19T13:48:30.842Z,715
2018-09-19T13:49:40.962Z,550
2018-09-19T13:50:50.270Z,595
2018-09-19T13:51:59.578Z,550
2018-09-19T13:53:08.886Z,480
2018-09-19T13:54:18.222Z,515
2018-09-19T13:55:28.089Z,515
2018-09-19T13:56:37.988Z,490
2018-09-19T13:57:47.864Z,630
2018-09-19T13:58:58.185Z,1870
2018-09-19T14:00:08.341Z,1945
2018-09-19T14:01:17.920Z,1085
2018-09-19T14:02:27.533Z,1835
2018-09-19T14:03:37.665Z,1780
2018-09-19T14:04:47.513Z,1595
2018-09-19T14:05:57.143Z,2240
2018-09-19T14:07:07.272Z,2360
2018-09-19T14:08:17.394Z,2305
2018-09-19T14:09:26.972Z,920
2018-09-19T14:10:37.106Z,685
2018-09-19T14:11:47.608Z,1635
2018-09-19T14:12:57.803Z,1440
2018-09-19T14:14:07.123Z,1915
2018-09-19T14:15:16.980Z,2165
2018-09-19T14:16:26.890Z,2320
2018-09-19T14:17:36.746Z,2115
2018-09-19T14:18:46.333Z,1990
2018-09-19T14:19:56.458Z,2080
2018-09-19T14:21:05.780Z,2345
2018-09-19T14:22:15.958Z,2290
2018-09-19T14:23:25.813Z,2060
2018-09-19T14:24:35.399Z,2195
2018-09-19T14:25:44.985Z,1160
2018-09-19T14:26:54.855Z,970
2018-09-19T14:28:05.041Z,1320
2018-09-19T14:29:14.360Z,825
2018-09-19T14:30:24.248Z,760
2018-09-19T14:31:34.380Z,770
2018-09-19T14:32:44.480Z,780
2018-09-19T14:33:54.113Z,775
2018-09-19T14:35:03.986Z,520
2018-09-19T14:36:14.110Z,505
2018-09-19T14:37:23.967Z,500
2018-09-19T14:38:33.830Z,505
2018-09-19T14:39:44.238Z,470
2018-09-19T14:40:54.357Z,495
2018-09-19T14:42:03.943Z,435
2018-09-19T14:43:13.795Z,435
2018-09-19T14:44:23.656Z,460
2018-09-19T14:45:33.786Z,425
2018-09-19T14:46:43.661Z,410
2018-09-19T14:47:53.512Z,625
2018-09-19T14:49:03.754Z,545
2018-09-19T14:50:13.602Z,805
2018-09-19T14:51:23.506Z,1215
2018-09-19T14:52:33.360Z,1065
2018-09-19T14:53:42.669Z,640
2018-09-19T14:54:52.787Z,535
2018-09-19T14:56:02.403Z,725
2018-09-19T14:57:11.710Z,835
2018-09-19T14:58:21.575Z,510
2018-09-19T14:59:30.886Z,890
2018-09-19T15:00:40.772Z,650
2018-09-19T15:01:50.557Z,640
2018-09-19T15:02:59.871Z,500
2018-09-19T15:04:09.718Z,505
2018-09-19T15:05:19.300Z,480
2018-09-19T15:06:29.422Z,590
2018-09-19T15:07:39.003Z,570
2018-09-19T15:08:49.161Z,495
2018-09-19T15:09:59.014Z,705
2018-09-19T15:11:08.626Z,730
2018-09-19T15:12:18.751Z,445
2018-09-19T15:13:28.339Z,535
2018-09-19T15:14:37.647Z,420
2018-09-19T15:15:47.800Z,370
2018-09-19T15:16:57.389Z,410
2018-09-19T15:18:07.807Z,415
2018-09-19T15:19:17.623Z,475
2018-09-19T15:20:27.750Z,470
2018-09-19T15:21:37.325Z,415
2018-09-19T15:22:47.175Z,395
2018-09-19T15:23:57.532Z,550
2018-09-19T15:25:06.853Z,810
2018-09-19T15:26:16.439Z,1405
2018-09-19T15:27:25.755Z,1235
2018-09-19T15:28:36.229Z,1045
2018-09-19T15:29:45.576Z,1240
2018-09-19T15:30:55.694Z,1370
2018-09-19T15:32:05.812Z,1455
2018-09-19T15:33:15.443Z,1450
2018-09-19T15:34:25.023Z,1155
2018-09-19T15:35:35.156Z,575
2018-09-19T15:36:45.008Z,435
2018-09-19T15:37:54.862Z,1575
2018-09-19T15:39:04.751Z,1775
2018-09-19T15:40:14.596Z,1855
2018-09-19T15:41:24.716Z,1735
2018-09-19T15:42:34.878Z,1660
2018-09-19T15:43:44.852Z,1745
2018-09-19T15:44:54.202Z,1295
2018-09-19T15:46:04.069Z,1090
2018-09-19T15:47:13.968Z,690
2018-09-19T15:48:23.771Z,505
2018-09-19T15:49:33.398Z,485
2018-09-19T15:50:43.662Z,440
2018-09-19T15:51:53.317Z,510
2018-09-19T15:53:03.175Z,595
2018-09-19T15:54:13.293Z,390
2018-09-19T15:55:23.161Z,455
2018-09-19T15:56:33.076Z,780
2018-09-19T15:57:43.334Z,445
2018-09-19T15:58:53.583Z,505
2018-09-19T16:00:03.575Z,465
2018-09-19T16:01:13.510Z,380
2018-09-19T16:02:23.455Z,400
2018-09-19T16:03:33.816Z,365
2018-09-19T16:04:43.397Z,310
2018-09-19T16:05:53.689Z,285
2018-09-19T16:07:03.315Z,250
2018-09-19T16:08:13.514Z,265
2018-09-19T16:09:23.686Z,270
2018-09-19T16:10:33.645Z,300
2018-09-19T16:11:43.259Z,725
2018-09-19T16:12:53.396Z,885
2018-09-19T16:14:03.256Z,1050
2018-09-19T16:15:13.137Z,1120
2018-09-19T16:16:22.808Z,995
2018-09-19T16:17:32.700Z,880
2018-09-19T16:18:42.627Z,535
2018-09-19T16:19:52.537Z,375
2018-09-19T16:21:02.285Z,550
2018-09-19T16:22:12.151Z,820
2018-09-19T16:23:22.279Z,900